Time;durP1;ratioP1;P1;durP2;ratioP2;P2;SDS_P1;SDS_P2;PMS_P1;PMS_P2;Temp;Humidity;BMP_temperature;BMP_pressure;BME280_temperature;BME280_humidity;BME280_pressure;Samples;Min_cycle;Max_cycle;Signal;HPM_P1;HPM_P2
2022/07/05 00:00:07;;;;;;;;;;;;;;;15.73;64.30;102083.91;5087139;28;19993;-56
2022/07/05 00:02:32;;;;;;;;;;;;;;;15.65;64.64;102088.47;5084821;28;20469;-57
2022/07/05 00:04:57;;;;;;;;;;;;;;;15.58;64.62;102080.28;5086279;28;19915;-55
2022/07/05 00:07:23;;;;;;;;;;;;;;;15.53;64.69;102082.63;5085631;28;20393;-55
2022/07/05 00:09:49;;;;;;;;;;;;;;;15.48;64.75;102080.47;5086869;28;19908;-57
2022/07/05 00:12:14;;;;;;;;;;;;;;;15.42;64.90;102081.16;5083366;28;19969;-56
2022/07/05 00:14:40;;;;;;;;;;;;;;;15.37;64.72;102078.16;5087083;28;19962;-57
2022/07/05 00:17:06;;;;;;;;;;;;;;;15.35;65.28;102077.50;5086790;28;20004;-55
2022/07/05 00:19:31;;;;;;;;;;;;;;;15.34;65.39;102073.16;5085534;28;19913;-57
2022/07/05 00:21:57;;;;;;;;;;;;;;;15.31;65.29;102076.16;5083741;28;19912;-57
2022/07/05 00:24:22;;;;;;;;;;;;;;;15.27;65.40;102074.00;5080706;28;20368;-57
2022/07/05 00:26:47;;;;;;;;;;;;;;;15.25;65.37;102073.34;5086452;28;19908;-57
2022/07/05 00:29:13;;;;;;;;;;;;;;;15.26;65.80;102070.47;5087379;28;19919;-55
2022/07/05 00:31:38;;;;;;;;;;;;;;;15.26;66.13;102069.66;5089649;28;20043;-56
2022/07/05 00:34:03;;;;;;;;;;;;;;;15.26;66.27;102072.31;5086570;28;19919;-56
2022/07/05 00:36:28;;;;;;;;;;;;;;;15.26;66.01;102065.13;5091677;28;20003;-57
2022/07/05 00:38:53;;;;;;;;;;;;;;;15.21;66.65;102070.16;5089674;28;19907;-56
2022/07/05 00:41:19;;;;;;;;;;;;;;;15.12;66.68;102069.34;5088921;28;19926;-57
2022/07/05 00:43:51;;;;;;;;;;;;;;;15.05;66.10;102072.88;5091208;28;19998;-57
2022/07/05 00:46:17;;;;;;;;;;;;;;;15.02;66.56;102068.69;5089536;28;19920;-57
2022/07/05 00:48:42;;;;;;;;;;;;;;;15.03;66.74;102067.69;5089958;28;19969;-57
2022/07/05 00:51:07;;;;;;;;;;;;;;;15.03;66.69;102062.31;5086137;28;20378;-57
2022/07/05 00:53:32;;;;;;;;;;;;;;;15.01;66.87;102064.34;5090649;28;19919;-56
2022/07/05 00:55:57;;;;;;;;;;;;;;;14.97;67.12;102065.69;5089107;28;19911;-55
2022/07/05 00:58:23;;;;;;;;;;;;;;;14.90;67.15;102071.88;5089810;28;19943;-57
2022/07/05 01:00:48;;;;;;;;;;;;;;;14.83;67.24;102069.91;5089912;28;20350;-57
2022/07/05 01:03:13;;;;;;;;;;;;;;;14.77;67.83;102081.28;5088016;28;20394;-55
2022/07/05 01:05:38;;;;;;;;;;;;;;;14.63;67.97;102065.06;5084452;28;19912;-57
2022/07/05 01:08:04;;;;;;;;;;;;;;;14.55;68.52;102072.06;5086876;28;19912;-58
2022/07/05 01:10:30;;;;;;;;;;;;;;;14.47;68.92;102074.75;5090596;28;19912;-57
2022/07/05 01:12:55;;;;;;;;;;;;;;;14.40;68.45;102068.34;5089595;28;20351;-56
2022/07/05 01:15:21;;;;;;;;;;;;;;;14.38;68.33;102077.53;5087628;28;19959;-56
2022/07/05 01:17:47;;;;;;;;;;;;;;;14.37;68.13;102070.50;5090586;28;20441;-57
2022/07/05 01:20:12;;;;;;;;;;;;;;;14.39;68.59;102068.50;5089337;28;19924;-57
2022/07/05 01:22:53;;;;;;;;;;;;;;;14.35;68.83;102070.69;5085374;28;20010;-57
2022/07/05 01:25:19;;;;;;;;;;;;;;;14.31;68.61;102068.50;5090838;28;19981;-56
2022/07/05 01:27:45;;;;;;;;;;;;;;;14.27;68.41;102068.84;5090363;28;20369;-56
2022/07/05 01:30:11;;;;;;;;;;;;;;;14.29;68.17;102065.16;5089197;28;20414;-56
2022/07/05 01:32:36;;;;;;;;;;;;;;;14.35;67.82;102061.81;5082330;28;19920;-56
2022/07/05 01:35:01;;;;;;;;;;;;;;;14.38;68.30;102062.31;5089123;28;19920;-57
2022/07/05 01:37:28;;;;;;;;;;;;;;;14.35;68.26;102065.34;5087665;28;19912;-57
2022/07/05 01:39:53;;;;;;;;;;;;;;;14.34;68.77;102062.81;5088758;28;19912;-57
2022/07/05 01:42:18;;;;;;;;;;;;;;;14.35;68.89;102069.84;5086608;28;20033;-58
2022/07/05 01:44:43;;;;;;;;;;;;;;;14.35;69.02;102059.16;5087248;28;19943;-56
2022/07/05 01:47:09;;;;;;;;;;;;;;;14.32;68.78;102065.66;5089717;28;19966;-57
2022/07/05 01:49:37;;;;;;;;;;;;;;;14.28;68.72;102067.00;5088627;28;19908;-56
2022/07/05 01:52:08;;;;;;;;;;;;;;;14.29;69.01;102059.81;5087841;28;19912;-56
2022/07/05 01:54:33;;;;;;;;;;;;;;;14.31;68.75;102069.34;5087192;28;19946;-57
2022/07/05 01:56:58;;;;;;;;;;;;;;;14.31;69.15;102068.50;5086719;28;20384;-56
2022/07/05 01:59:24;;;;;;;;;;;;;;;14.27;68.93;102068.00;5089693;28;19946;-56
2022/07/05 02:01:49;;;;;;;;;;;;;;;14.22;69.29;102067.66;5088143;28;19912;-56
2022/07/05 02:04:16;;;;;;;;;;;;;;;14.15;69.03;102070.13;5085631;28;19919;-57
2022/07/05 02:06:41;;;;;;;;;;;;;;;14.13;69.12;102071.28;5088762;28;20415;-56
2022/07/05 02:09:07;;;;;;;;;;;;;;;14.12;68.92;102066.97;5086627;28;20011;-57
2022/07/05 02:11:32;;;;;;;;;;;;;;;14.12;69.48;102058.94;5087613;28;19968;-55
2022/07/05 02:13:58;;;;;;;;;;;;;;;14.08;69.26;102068.28;5088865;28;19916;-56
2022/07/05 02:16:25;;;;;;;;;;;;;;;14.01;69.43;102075.28;5087142;28;20687;-56
2022/07/05 02:18:51;;;;;;;;;;;;;;;13.95;69.72;102068.75;5088639;28;19912;-57
2022/07/05 02:21:16;;;;;;;;;;;;;;;13.90;69.69;102076.44;5084357;28;19919;-57
2022/07/05 02:23:41;;;;;;;;;;;;;;;13.85;69.45;102073.38;5087053;28;19919;-56
2022/07/05 02:26:06;;;;;;;;;;;;;;;13.79;70.09;102074.03;5084493;28;19950;-56
2022/07/05 02:28:31;;;;;;;;;;;;;;;13.71;70.39;102064.19;5087793;28;20120;-53
2022/07/05 02:30:57;;;;;;;;;;;;;;;13.67;70.68;102067.34;5088254;28;19916;-55
2022/07/05 02:33:22;;;;;;;;;;;;;;;13.62;70.76;102059.81;5089042;28;20014;-58
2022/07/05 02:35:47;;;;;;;;;;;;;;;13.62;70.36;102060.66;5087123;28;19919;-56
2022/07/05 02:38:12;;;;;;;;;;;;;;;13.62;70.63;102071.31;5089894;28;19908;-54
2022/07/05 02:40:37;;;;;;;;;;;;;;;13.60;71.22;102075.16;5085528;28;19908;-58
2022/07/05 02:43:02;;;;;;;;;;;;;;;13.55;71.38;102072.94;5087111;28;20397;-56
2022/07/05 02:45:28;;;;;;;;;;;;;;;13.52;72.28;102073.25;5088566;28;19969;-56
2022/07/05 02:47:53;;;;;;;;;;;;;;;13.50;72.04;102079.75;5088349;28;19924;-54
2022/07/05 02:50:18;;;;;;;;;;;;;;;13.49;72.10;102072.75;5088072;28;20437;-56
2022/07/05 02:52:43;;;;;;;;;;;;;;;13.45;72.33;102082.06;5084612;28;19920;-57
2022/07/05 02:55:09;;;;;;;;;;;;;;;13.42;72.29;102079.72;5078739;28;19926;-55
2022/07/05 02:57:36;;;;;;;;;;;;;;;13.39;72.38;102078.22;5087876;28;19912;-57
2022/07/05 03:00:01;;;;;;;;;;;;;;;13.41;72.25;102078.03;5087265;28;19919;-57
2022/07/05 03:02:26;;;;;;;;;;;;;;;13.43;72.22;102087.56;5085984;28;19908;-56
2022/07/05 03:04:52;;;;;;;;;;;;;;;13.43;72.80;102089.41;5088198;28;19969;-56
2022/07/05 03:07:17;;;;;;;;;;;;;;;13.41;73.07;102092.22;5088926;28;19912;-56
2022/07/05 03:09:42;;;;;;;;;;;;;;;13.41;72.70;102091.38;5084791;28;20390;-56
2022/07/05 03:12:08;;;;;;;;;;;;;;;13.41;72.40;102092.22;5087751;28;19915;-56
2022/07/05 03:14:33;;;;;;;;;;;;;;;13.43;72.56;102092.91;5083157;28;19920;-57
2022/07/05 03:16:58;;;;;;;;;;;;;;;13.45;72.12;102093.56;5087027;28;19953;-56
2022/07/05 03:19:23;;;;;;;;;;;;;;;13.49;72.85;102092.25;5088407;28;19950;-56
2022/07/05 03:21:48;;;;;;;;;;;;;;;13.53;72.92;102098.13;5085807;28;20272;-56
2022/07/05 03:24:13;;;;;;;;;;;;;;;13.53;72.77;102106.97;5087716;28;19908;-55
2022/07/05 03:26:39;;;;;;;;;;;;;;;13.52;72.90;102102.63;5086401;28;20016;-57
2022/07/05 03:29:04;;;;;;;;;;;;;;;13.51;73.00;102100.09;5080178;28;20382;-57
2022/07/05 03:31:29;;;;;;;;;;;;;;;13.54;72.78;102089.94;5086445;28;19927;-57
2022/07/05 03:33:56;;;;;;;;;;;;;;;13.57;72.30;102094.13;5087537;28;19912;-57
2022/07/05 03:36:21;;;;;;;;;;;;;;;13.59;72.44;102094.84;5087460;28;19919;-56
2022/07/05 03:38:46;;;;;;;;;;;;;;;13.57;73.24;102089.63;5086435;28;19916;-56
2022/07/05 03:41:12;;;;;;;;;;;;;;;13.63;72.95;102093.50;5086559;28;20002;-55
2022/07/05 03:43:37;;;;;;;;;;;;;;;13.65;73.46;102094.19;5086844;28;19912;-56
2022/07/05 03:46:02;;;;;;;;;;;;;;;13.65;73.64;102104.88;5086928;28;19908;-57
2022/07/05 03:48:28;;;;;;;;;;;;;;;13.65;73.92;102102.19;5088083;28;19908;-55
2022/07/05 03:50:53;;;;;;;;;;;;;;;13.66;73.88;102105.69;5086444;28;19911;-57
2022/07/05 03:53:18;;;;;;;;;;;;;;;13.67;74.44;102096.69;5087984;28;20302;-56
2022/07/05 03:55:43;;;;;;;;;;;;;;;13.62;75.22;102097.19;5087332;28;20034;-54
2022/07/05 03:58:09;;;;;;;;;;;;;;;13.56;75.30;102095.97;5085415;28;20016;-56
2022/07/05 04:00:35;;;;;;;;;;;;;;;13.56;75.08;102105.81;5086862;28;19916;-56
2022/07/05 04:03:00;;;;;;;;;;;;;;;13.60;74.47;102097.34;5086606;28;19957;-56
2022/07/05 04:05:26;;;;;;;;;;;;;;;13.67;74.55;102102.03;5089178;28;19908;-57
2022/07/05 04:07:52;;;;;;;;;;;;;;;13.72;75.06;102102.38;5088671;28;19915;-56
2022/07/05 04:10:18;;;;;;;;;;;;;;;13.72;75.42;102105.88;5091316;28;20465;-57
2022/07/05 04:12:43;;;;;;;;;;;;;;;13.72;75.63;102110.41;5090629;28;19912;-56
2022/07/05 04:15:09;;;;;;;;;;;;;;;13.70;75.65;102121.22;5090211;28;19919;-56
2022/07/05 04:17:34;;;;;;;;;;;;;;;13.69;76.10;102114.22;5091600;28;20321;-55
2022/07/05 04:19:59;;;;;;;;;;;;;;;13.72;76.38;102116.56;5091434;28;20371;-56
2022/07/05 04:22:24;;;;;;;;;;;;;;;13.73;76.60;102112.91;5088159;28;19916;-54
2022/07/05 04:27:33;;;;;;;;;;;;;;;13.85;75.74;102118.78;5090634;28;19915;-56
2022/07/05 04:29:58;;;;;;;;;;;;;;;13.92;75.76;102120.66;5092335;28;20050;-56
2022/07/05 04:32:24;;;;;;;;;;;;;;;14.01;75.52;102115.34;5088059;28;19922;-57
2022/07/05 04:34:49;;;;;;;;;;;;;;;14.09;75.89;102123.38;5088726;28;19916;-56
2022/07/05 04:37:15;;;;;;;;;;;;;;;14.15;75.57;102118.22;5089993;28;20385;-56
2022/07/05 04:39:40;;;;;;;;;;;;;;;14.22;75.48;102116.59;5091314;28;19908;-56
2022/07/05 04:42:05;;;;;;;;;;;;;;;14.26;74.68;102109.91;5091011;28;19908;-57
2022/07/05 04:44:31;;;;;;;;;;;;;;;14.32;75.22;102113.75;5089862;28;19908;-56
2022/07/05 04:46:56;;;;;;;;;;;;;;;14.37;75.12;102127.47;5091277;28;19912;-54
2022/07/05 04:49:21;;;;;;;;;;;;;;;14.41;74.86;102123.47;5080888;28;19962;-56
2022/07/05 04:51:46;;;;;;;;;;;;;;;14.47;75.09;102117.50;5090877;28;19908;-56
2022/07/05 04:54:11;;;;;;;;;;;;;;;14.53;75.15;102118.69;5091022;28;19943;-57
2022/07/05 04:56:36;;;;;;;;;;;;;;;14.57;75.43;102117.34;5090463;28;19998;-56
2022/07/05 04:59:02;;;;;;;;;;;;;;;14.62;74.79;102109.66;5090798;28;20303;-56
2022/07/05 05:01:27;;;;;;;;;;;;;;;14.68;74.93;102119.69;5088054;28;19963;-56
2022/07/05 05:03:52;;;;;;;;;;;;;;;14.74;74.93;102119.03;5091465;28;20009;-57
2022/07/05 05:06:17;;;;;;;;;;;;;;;14.80;75.17;102122.88;5089984;28;19915;-57
2022/07/05 05:08:42;;;;;;;;;;;;;;;14.83;75.12;102127.91;5090592;28;19964;-56
2022/07/05 05:11:08;;;;;;;;;;;;;;;14.86;75.08;102127.56;5090161;28;19908;-55
2022/07/05 05:13:33;;;;;;;;;;;;;;;14.88;75.20;102130.91;5087428;28;19965;-55
2022/07/05 05:15:58;;;;;;;;;;;;;;;14.85;75.41;102136.59;5090940;28;20224;-56
2022/07/05 05:18:26;;;;;;;;;;;;;;;14.78;75.61;102133.75;5090291;28;19916;-56
2022/07/05 05:20:52;;;;;;;;;;;;;;;14.78;75.67;102138.28;5089796;28;19942;-56
2022/07/05 05:23:17;;;;;;;;;;;;;;;14.78;76.06;102136.44;5089768;28;20278;-55
2022/07/05 05:25:42;;;;;;;;;;;;;;;14.75;76.40;102142.13;5088499;28;19912;-56
2022/07/05 05:28:07;;;;;;;;;;;;;;;14.73;76.27;102137.91;5090703;28;19908;-56
2022/07/05 05:30:33;;;;;;;;;;;;;;;14.74;76.53;102148.44;5088750;28;19908;-56
2022/07/05 05:32:58;;;;;;;;;;;;;;;14.72;76.98;102144.25;5089915;28;19942;-54
2022/07/05 05:35:23;;;;;;;;;;;;;;;14.71;77.20;102145.25;5090291;28;19916;-55
2022/07/05 05:37:49;;;;;;;;;;;;;;;14.73;77.33;102143.25;5089956;28;20170;-56
2022/07/05 05:40:15;;;;;;;;;;;;;;;14.78;78.03;102157.81;5088637;28;20002;-56
2022/07/05 05:42:40;;;;;;;;;;;;;;;14.80;78.36;102152.31;5087398;28;20019;-57
2022/07/05 05:45:06;;;;;;;;;;;;;;;14.83;78.34;102160.00;5089735;28;19957;-56
2022/07/05 05:47:31;;;;;;;;;;;;;;;14.92;77.71;102152.81;5087862;28;20561;-56
2022/07/05 05:49:56;;;;;;;;;;;;;;;15.02;77.98;102151.63;5089388;28;19927;-56
2022/07/05 05:52:21;;;;;;;;;;;;;;;15.09;78.27;102158.00;5086537;28;19912;-57
2022/07/05 05:54:47;;;;;;;;;;;;;;;15.15;77.94;102153.81;5084892;28;19916;-56
2022/07/05 05:57:12;;;;;;;;;;;;;;;15.23;78.01;102158.31;5082982;28;20246;-54
2022/07/05 05:59:37;;;;;;;;;;;;;;;15.26;77.92;102161.47;5075104;28;19918;-56
2022/07/05 06:02:02;;;;;;;;;;;;;;;15.30;77.78;102170.84;5084379;28;20157;-56
2022/07/05 06:04:27;;;;;;;;;;;;;;;15.31;77.77;102161.81;5082873;28;19919;-56
2022/07/05 06:06:52;;;;;;;;;;;;;;;15.35;77.88;102165.00;5088177;28;20400;-56
2022/07/05 06:09:18;;;;;;;;;;;;;;;15.37;77.73;102174.53;5089096;28;19911;-56
2022/07/05 06:11:43;;;;;;;;;;;;;;;15.42;77.86;102174.84;5087706;28;19990;-56
2022/07/05 06:14:09;;;;;;;;;;;;;;;15.42;77.53;102172.19;5089940;28;19912;-56
2022/07/05 06:16:34;;;;;;;;;;;;;;;15.46;77.97;102165.47;5086870;28;19919;-57
2022/07/05 06:18:59;;;;;;;;;;;;;;;15.50;77.83;102174.00;5077876;28;20007;-56
2022/07/05 06:21:24;;;;;;;;;;;;;;;15.53;77.99;102175.50;5084164;28;19915;-55
2022/07/05 06:23:49;;;;;;;;;;;;;;;15.57;78.09;102176.81;5085151;28;19919;-55
2022/07/05 06:26:15;;;;;;;;;;;;;;;15.64;77.85;102170.66;5086085;28;19995;-56
2022/07/05 06:28:40;;;;;;;;;;;;;;;15.69;77.68;102178.19;5085371;28;19928;-57
2022/07/05 06:31:05;;;;;;;;;;;;;;;15.69;77.04;102168.31;5082656;28;20428;-56
2022/07/05 06:33:30;;;;;;;;;;;;;;;15.69;76.49;102178.19;5085480;28;20011;-55
2022/07/05 06:35:55;;;;;;;;;;;;;;;15.70;76.46;102180.69;5084435;28;20283;-56
2022/07/05 06:38:21;;;;;;;;;;;;;;;15.69;76.09;102183.53;5086318;28;19947;-55
2022/07/05 06:40:46;;;;;;;;;;;;;;;15.70;76.34;102185.22;5082832;28;19912;-57
2022/07/05 06:43:12;;;;;;;;;;;;;;;15.71;75.77;102178.84;5084226;28;19980;-55
2022/07/05 06:45:38;;;;;;;;;;;;;;;15.71;75.99;102185.03;5084629;28;20279;-56
2022/07/05 06:48:04;;;;;;;;;;;;;;;15.71;75.53;102187.72;5083125;28;19920;-56
2022/07/05 06:50:30;;;;;;;;;;;;;;;15.74;75.33;102186.53;5085095;28;20006;-55
2022/07/05 06:52:56;;;;;;;;;;;;;;;15.75;75.13;102186.34;5086404;28;19907;-56
2022/07/05 06:55:22;;;;;;;;;;;;;;;15.83;75.23;102184.66;5078717;28;19916;-57
2022/07/05 06:57:47;;;;;;;;;;;;;;;15.90;74.62;102182.94;5083572;28;19918;-56
2022/07/05 07:00:13;;;;;;;;;;;;;;;15.98;74.49;102185.63;5087043;28;19918;-56
2022/07/05 07:02:38;;;;;;;;;;;;;;;16.06;74.42;102189.09;5083214;28;19920;-55
2022/07/05 07:05:03;;;;;;;;;;;;;;;16.17;74.17;102198.59;5082108;28;20466;-55
2022/07/05 07:10:14;;;;;;;;;;;;;;;16.43;73.79;102188.41;5085216;28;19918;-57
2022/07/05 07:12:39;;;;;;;;;;;;;;;16.57;74.29;102189.53;5082981;28;19915;-56
2022/07/05 07:15:05;;;;;;;;;;;;;;;16.72;74.06;102197.66;5087515;28;19919;-55
2022/07/05 07:17:30;;;;;;;;;;;;;;;16.80;73.91;102194.94;5087139;28;19916;-55
2022/07/05 07:19:55;;;;;;;;;;;;;;;16.91;73.85;102197.19;5088461;28;19912;-56
2022/07/05 07:22:20;;;;;;;;;;;;;;;16.95;73.10;102192.31;5086122;28;19908;-57
2022/07/05 07:24:46;;;;;;;;;;;;;;;16.97;73.31;102196.47;5088415;28;19908;-54
2022/07/05 07:27:11;;;;;;;;;;;;;;;17.04;73.33;102189.38;5086551;28;19923;-57
2022/07/05 07:29:38;;;;;;;;;;;;;;;17.15;73.46;102198.88;5088643;28;19922;-56
2022/07/05 07:32:04;;;;;;;;;;;;;;;17.25;73.50;102199.44;5085321;28;19978;-56
2022/07/05 07:34:29;;;;;;;;;;;;;;;17.31;73.37;102203.25;5085328;28;20147;-54
2022/07/05 07:36:56;;;;;;;;;;;;;;;17.39;73.20;102208.56;5088140;28;20010;-56
2022/07/05 07:39:21;;;;;;;;;;;;;;;17.51;73.36;102206.25;5087162;28;19950;-57
2022/07/05 07:41:47;;;;;;;;;;;;;;;17.54;73.05;102209.41;5086101;28;19951;-57
2022/07/05 07:44:12;;;;;;;;;;;;;;;17.56;72.93;102212.75;5085285;28;19908;-56
2022/07/05 07:46:39;;;;;;;;;;;;;;;17.61;73.05;102209.50;5087079;28;19912;-57
2022/07/05 07:49:04;;;;;;;;;;;;;;;17.63;73.04;102208.31;5086416;28;19934;-56
2022/07/05 07:51:29;;;;;;;;;;;;;;;17.70;72.91;102210.31;5085302;28;20379;-57
2022/07/05 07:53:55;;;;;;;;;;;;;;;17.73;72.95;102213.47;5084022;28;19977;-56
2022/07/05 07:56:20;;;;;;;;;;;;;;;17.76;72.68;102213.09;5084575;28;19927;-58
2022/07/05 07:58:46;;;;;;;;;;;;;;;17.82;73.09;102208.81;5083403;28;19911;-56
2022/07/05 08:01:11;;;;;;;;;;;;;;;17.88;72.85;102208.06;5085516;28;19911;-56
2022/07/05 08:03:38;;;;;;;;;;;;;;;17.97;72.80;102214.22;5086882;28;20280;-56
2022/07/05 08:06:03;;;;;;;;;;;;;;;17.98;72.58;102221.25;5084863;28;19908;-54
2022/07/05 08:08:28;;;;;;;;;;;;;;;18.02;72.42;102226.06;5086392;28;19915;-56
2022/07/05 08:10:53;;;;;;;;;;;;;;;18.07;72.60;102223.66;5086812;28;19912;-57
2022/07/05 08:13:18;;;;;;;;;;;;;;;18.14;72.18;102226.44;5084155;28;20431;-56
2022/07/05 08:15:43;;;;;;;;;;;;;;;18.21;72.05;102225.50;5088431;28;19912;-56
2022/07/05 08:23:36;;;;;;;;;;;;;;;18.35;71.41;102225.66;5086591;28;20310;-57
2022/07/05 08:26:01;;;;;;;;;;;;;;;18.32;71.29;102221.50;5086702;28;19912;-56
2022/07/05 08:28:27;;;;;;;;;;;;;;;18.32;71.65;102224.19;5079329;28;20002;-56
2022/07/05 08:30:53;;;;;;;;;;;;;;;18.42;71.27;102219.34;5085447;28;20014;-56
2022/07/05 08:33:18;;;;;;;;;;;;;;;18.52;71.71;102225.28;5088422;28;19908;-56
2022/07/05 08:35:43;;;;;;;;;;;;;;;18.54;71.21;102222.41;5086312;28;19908;-55
2022/07/05 08:38:08;;;;;;;;;;;;;;;18.52;71.08;102219.91;5083766;28;19962;-57
2022/07/05 08:40:36;;;;;;;;;;;;;;;18.45;70.38;102213.59;5086505;28;20359;-56
2022/07/05 08:43:02;;;;;;;;;;;;;;;18.45;70.61;102210.06;5081424;28;19943;-56
2022/07/05 08:45:29;;;;;;;;;;;;;;;18.50;70.48;102208.50;5087436;28;19964;-57
2022/07/05 08:47:55;;;;;;;;;;;;;;;18.66;71.29;102209.31;5086689;28;19954;-57
2022/07/05 08:50:21;;;;;;;;;;;;;;;18.85;70.88;102208.69;5086799;28;20348;-56
2022/07/05 08:52:47;;;;;;;;;;;;;;;19.04;70.84;102204.50;5089257;28;19912;-55
2022/07/05 08:55:12;;;;;;;;;;;;;;;19.19;70.42;102203.41;5090859;28;19964;-57
2022/07/05 08:57:37;;;;;;;;;;;;;;;19.29;69.11;102199.53;5089964;28;20378;-53
2022/07/05 09:00:03;;;;;;;;;;;;;;;19.28;68.37;102209.47;5092487;28;20383;-56
2022/07/05 09:02:28;;;;;;;;;;;;;;;19.39;68.49;102200.88;5087343;28;20090;-57
2022/07/05 09:04:55;;;;;;;;;;;;;;;19.51;68.60;102203.88;5089711;28;19919;-56
2022/07/05 09:07:22;;;;;;;;;;;;;;;19.60;67.42;102209.97;5090984;28;19912;-56
2022/07/05 09:09:48;;;;;;;;;;;;;;;19.67;66.26;102208.16;5089869;28;19953;-56
2022/07/05 09:12:14;;;;;;;;;;;;;;;19.83;65.97;102213.22;5090191;28;19988;-56
2022/07/05 09:14:39;;;;;;;;;;;;;;;19.80;65.39;102217.16;5088714;28;20352;-55
2022/07/05 09:17:05;;;;;;;;;;;;;;;19.68;64.16;102210.66;5090925;28;19965;-56
2022/07/05 09:19:31;;;;;;;;;;;;;;;19.80;65.37;102205.53;5089848;28;19912;-57
2022/07/05 09:22:03;;;;;;;;;;;;;;;20.09;65.51;102216.06;5088685;28;19912;-56
2022/07/05 09:24:30;;;;;;;;;;;;;;;20.21;64.99;102207.41;5082630;28;20023;-56
2022/07/05 09:27:01;;;;;;;;;;;;;;;20.30;62.13;102220.53;5087702;28;19931;-56
2022/07/05 09:29:26;;;;;;;;;;;;;;;20.34;61.68;102215.56;5090577;28;19908;-57
2022/07/05 09:31:52;;;;;;;;;;;;;;;20.46;60.32;102213.97;5088070;28;20399;-56
2022/07/05 09:34:19;;;;;;;;;;;;;;;20.49;59.41;102221.66;5090311;28;19916;-54
2022/07/05 09:36:54;;;;;;;;;;;;;;;20.55;58.23;102228.16;5089641;28;20275;-56
2022/07/05 09:39:29;;;;;;;;;;;;;;;20.63;58.35;102230.66;5089989;28;20078;-56
2022/07/05 09:42:12;;;;;;;;;;;;;;;20.68;58.20;102234.41;5087896;28;19919;-56
2022/07/05 09:44:44;;;;;;;;;;;;;;;20.58;58.05;102220.47;5090326;28;20166;-54
2022/07/05 09:47:10;;;;;;;;;;;;;;;20.41;57.49;102222.69;5089879;28;20008;-55
2022/07/05 09:49:37;;;;;;;;;;;;;;;20.37;57.71;102216.00;5089939;28;19967;-56
2022/07/05 09:52:02;;;;;;;;;;;;;;;20.23;58.09;102224.22;5088823;28;19912;-56
2022/07/05 09:54:27;;;;;;;;;;;;;;;20.17;58.64;102215.06;5089800;28;19922;-56
2022/07/05 09:56:52;;;;;;;;;;;;;;;20.13;58.96;102208.41;5088700;28;19998;-56
2022/07/05 09:59:19;;;;;;;;;;;;;;;20.15;59.19;102216.31;5089428;28;19931;-56
2022/07/05 10:01:45;;;;;;;;;;;;;;;20.28;58.82;102213.69;5089808;28;19908;-56
2022/07/05 10:04:10;;;;;;;;;;;;;;;20.43;59.03;102211.69;5088226;28;19908;-56
2022/07/05 10:06:36;;;;;;;;;;;;;;;20.54;58.34;102205.72;5087261;28;19916;-55
2022/07/05 10:09:01;;;;;;;;;;;;;;;20.65;58.16;102213.22;5088913;28;19916;-56
2022/07/05 10:11:29;;;;;;;;;;;;;;;20.83;57.73;102215.34;5084127;28;19919;-56
2022/07/05 10:13:55;;;;;;;;;;;;;;;20.95;57.93;102215.56;5088525;28;20281;-56
2022/07/05 10:16:21;;;;;;;;;;;;;;;21.12;57.52;102210.59;5078733;28;20390;-55
2022/07/05 10:18:48;;;;;;;;;;;;;;;21.18;57.36;102207.06;5083165;28;19912;-57
2022/07/05 10:21:14;;;;;;;;;;;;;;;21.18;56.32;102216.00;5083948;28;20432;-57
2022/07/05 10:23:42;;;;;;;;;;;;;;;21.24;55.69;102217.91;5085483;28;19919;-56
2022/07/05 10:26:08;;;;;;;;;;;;;;;21.38;54.31;102223.28;5082317;28;19919;-56
2022/07/05 10:28:33;;;;;;;;;;;;;;;21.49;53.83;102215.41;5081533;28;19912;-57
2022/07/05 10:30:59;;;;;;;;;;;;;;;21.60;51.11;102211.22;5081011;28;20397;-55
2022/07/05 10:33:26;;;;;;;;;;;;;;;21.75;51.66;102214.53;5087570;28;19920;-55
2022/07/05 10:35:52;;;;;;;;;;;;;;;21.87;52.41;102210.13;5084922;28;20378;-56
2022/07/05 10:38:19;;;;;;;;;;;;;;;22.05;51.99;102209.50;5089216;28;19920;-55
2022/07/05 10:40:47;;;;;;;;;;;;;;;22.31;52.04;102205.03;5092668;28;19923;-57
2022/07/05 10:43:12;;;;;;;;;;;;;;;22.43;51.58;102208.72;5083743;28;20602;-55
2022/07/05 10:45:47;;;;;;;;;;;;;;;22.56;51.73;102208.66;5089329;28;19956;-57
2022/07/05 10:48:14;;;;;;;;;;;;;;;22.47;50.56;102204.50;5084073;28;19907;-56
2022/07/05 10:50:50;;;;;;;;;;;;;;;22.35;52.30;102217.09;5085761;28;19911;-56
2022/07/05 10:53:16;;;;;;;;;;;;;;;22.30;52.59;102228.56;5083018;28;20116;-57
2022/07/05 10:55:49;;;;;;;;;;;;;;;22.31;52.58;102216.69;5082941;28;20379;-57
2022/07/05 10:58:18;;;;;;;;;;;;;;;22.37;53.45;102218.53;5088257;28;19951;-56
2022/07/05 11:00:43;;;;;;;;;;;;;;;22.41;53.33;102216.22;5084400;28;19922;-56
2022/07/05 11:03:27;;;;;;;;;;;;;;;22.38;53.08;102217.47;5087218;28;20321;-56
2022/07/05 11:05:53;;;;;;;;;;;;;;;22.22;52.31;102220.66;5086248;28;19912;-57
2022/07/05 11:08:18;;;;;;;;;;;;;;;22.04;52.07;102231.34;5086055;28;19923;-57
2022/07/05 11:11:02;;;;;;;;;;;;;;;21.71;51.24;102224.13;5085870;28;19916;-56
2022/07/05 11:13:37;;;;;;;;;;;;;;;21.41;51.33;102221.03;5086206;28;20372;-55
2022/07/05 11:16:21;;;;;;;;;;;;;;;21.38;52.17;102226.81;5088555;28;19973;-56
2022/07/05 11:18:47;;;;;;;;;;;;;;;21.48;52.15;102223.72;5088837;28;19960;-56
2022/07/05 11:21:16;;;;;;;;;;;;;;;21.49;51.63;102217.28;5086445;28;19995;-55
2022/07/05 11:23:41;;;;;;;;;;;;;;;21.39;51.69;102220.38;5086045;28;19984;-57
2022/07/05 11:26:07;;;;;;;;;;;;;;;21.32;51.55;102219.56;5088609;28;20395;-57
2022/07/05 11:28:42;;;;;;;;;;;;;;;21.46;51.53;102218.53;5082599;28;20382;-57
2022/07/05 11:31:07;;;;;;;;;;;;;;;21.58;50.37;102214.13;5080166;28;20016;-55
2022/07/05 11:33:42;;;;;;;;;;;;;;;21.65;50.56;102217.66;5085195;28;19945;-57
2022/07/05 11:36:20;;;;;;;;;;;;;;;21.85;50.36;102208.69;5083769;28;19914;-57
2022/07/05 11:39:04;;;;;;;;;;;;;;;22.03;49.67;102216.13;5089923;28;19912;-56
2022/07/05 11:41:30;;;;;;;;;;;;;;;21.84;48.93;102213.25;5085758;28;19923;-56
2022/07/05 11:43:57;;;;;;;;;;;;;;;21.64;48.48;102215.16;5087426;28;19915;-57
2022/07/05 11:46:23;;;;;;;;;;;;;;;21.41;49.13;102207.50;5088460;28;19952;-56
2022/07/05 11:48:48;;;;;;;;;;;;;;;21.24;49.81;102211.66;5088721;28;20010;-57
2022/07/05 11:51:14;;;;;;;;;;;;;;;21.08;49.68;102202.06;5090351;28;19912;-57
2022/07/05 11:53:39;;;;;;;;;;;;;;;21.02;50.02;102217.22;5086962;28;19922;-56
2022/07/05 11:56:05;;;;;;;;;;;;;;;20.97;50.00;102222.41;5087360;28;19919;-57
2022/07/05 11:58:31;;;;;;;;;;;;;;;20.88;49.86;102204.75;5088168;28;19908;-56
2022/07/05 12:00:57;;;;;;;;;;;;;;;21.00;50.32;102204.97;5086080;28;19912;-57
2022/07/05 12:03:22;;;;;;;;;;;;;;;21.18;50.29;102194.38;5087705;28;20358;-57
2022/07/05 12:05:47;;;;;;;;;;;;;;;21.50;50.77;102194.59;5087195;28;19955;-57
2022/07/05 12:08:19;;;;;;;;;;;;;;;21.80;50.33;102205.78;5086457;28;19908;-56
2022/07/05 12:13:41;;;;;;;;;;;;;;;22.01;49.54;102197.41;5085877;28;19927;-57
2022/07/05 12:16:07;;;;;;;;;;;;;;;22.02;49.48;102203.66;5086217;28;19954;-54
2022/07/05 12:18:45;;;;;;;;;;;;;;;22.05;49.81;102205.97;5085713;28;19926;-56
2022/07/05 12:21:14;;;;;;;;;;;;;;;22.35;49.82;102208.97;5083462;28;19912;-57
2022/07/05 12:23:41;;;;;;;;;;;;;;;22.38;48.60;102203.94;5082412;28;19912;-56
2022/07/05 12:26:06;;;;;;;;;;;;;;;22.29;48.25;102207.13;5085959;28;19931;-56
2022/07/05 12:28:31;;;;;;;;;;;;;;;22.25;48.20;102203.97;5083274;28;20129;-57
2022/07/05 12:30:57;;;;;;;;;;;;;;;22.26;46.89;102205.66;5088000;28;20058;-57
2022/07/05 12:33:23;;;;;;;;;;;;;;;22.25;46.45;102210.22;5091156;28;20029;-55
2022/07/05 12:35:50;;;;;;;;;;;;;;;22.07;45.57;102211.97;5088509;28;19912;-56
2022/07/05 12:38:18;;;;;;;;;;;;;;;21.94;46.47;102213.63;5092178;28;19908;-56
2022/07/05 12:40:44;;;;;;;;;;;;;;;22.02;47.80;102204.47;5086055;28;20332;-57
2022/07/05 12:43:14;;;;;;;;;;;;;;;22.30;49.00;102204.19;5087675;28;20094;-56